Rostein — LLHI — position and weather

sailwx.info

Track history (hours):
 
Tides and Currents Weather Stations Pressure Air Temp Water Temp Dewpoint Dewpoint Depression Visibility Wind Speed Wind Dir Waves Ship Positions

Rostein

Last reported at 2018-Feb-25 00:00 UTC. Time now 2018-Feb-25 00:13 UTC.
Position N 63°28' E 008°58'.

Length 57 m; draft 5 m.

Type: Cargo ship. MMSI: 257210000.

Date/timePositionNaut miles runAvg speedWind from/ knotsBaromVisibWave heightAir tempDewpointWater temp
2018-Feb-25 00:00N 63°28' E 008°58'4 7.8
2018-Feb-24 23:30N 63°30' E 009°06'4 7.9
2018-Feb-24 23:00N 63°32' E 009°14'5 9.5
2018-Feb-24 22:30N 63°34' E 009°23'510.3
2018-Feb-24 22:00N 63°37' E 009°32'611.9
2018-Feb-24 21:30N 63°39' E 009°45'612.3
2018-Feb-24 21:00N 63°34' E 009°50'612.5
2018-Feb-24 20:30N 63°29' E 009°59'612.5
2018-Feb-24 20:00N 63°30' E 010°12'612.7
2018-Feb-24 19:30N 63°33' E 010°25'612.9
2018-Feb-24 19:00N 63°37' E 010°37'612.9
2018-Feb-24 18:30N 63°41' E 010°48'612.6
2018-Feb-24 18:00N 63°45' E 010°59'612.4
2018-Feb-24 17:30N 63°51' E 011°04'612.3
2018-Feb-24 17:00N 63°57' E 011°06'2 3.7
2018-Feb-24 16:28N 63°59' E 011°07'0 0.0
2018-Feb-24 16:00N 63°59' E 011°07'0 0.0
2018-Feb-24 15:30N 63°59' E 011°07'0 0.0
2018-Feb-24 15:00N 63°59' E 011°07'0 0.0
2018-Feb-24 14:30N 63°59' E 011°07'0 0.0
2018-Feb-24 13:59N 63°59' E 011°07'0 0.0
2018-Feb-24 13:30N 63°59' E 011°07'3 5.7
2018-Feb-24 12:59N 63°56' E 011°05'510.4
2018-Feb-24 12:30N 63°51' E 011°04'510.3
2018-Feb-24 12:00N 63°46' E 011°00'510.4
2018-Feb-24 11:30N 63°42' E 010°53'510.2
2018-Feb-24 11:00N 63°39' E 010°43'510.0
2018-Feb-24 10:30N 63°36' E 010°34'4 8.7
2018-Feb-24 10:00N 63°34' E 010°26'611.7
2018-Feb-24 09:30N 63°31' E 010°15'510.7
2018-Feb-24 09:00N 63°29' E 010°04'2 4.1
2018-Feb-24 08:30N 63°28' E 009°59'510.3
2018-Feb-24 08:00N 63°32' E 009°51'611.6
2018-Feb-24 07:30N 63°38' E 009°47'4 7.3
2018-Feb-24 07:00N 63°39' E 009°40'611.0
2018-Feb-24 06:30N 63°36' E 009°29'612.2
2018-Feb-24 06:00N 63°33' E 009°17'612.6
2018-Feb-24 05:30N 63°30' E 009°05'611.6
2018-Feb-24 05:00N 63°28' E 008°53'611.6
2018-Feb-24 04:30N 63°26' E 008°41'611.6
2018-Feb-24 04:00N 63°23' E 008°29'611.9
2018-Feb-24 03:30N 63°20' E 008°19'612.6
2018-Feb-24 03:00N 63°16' E 008°08'612.4
2018-Feb-24 02:30N 63°13' E 007°55'612.0
2018-Feb-24 02:00N 63°10' E 007°44'612.0
2018-Feb-24 01:30N 63°06' E 007°33'611.7
2018-Feb-24 01:00N 63°04' E 007°22'612.3
2018-Feb-24 00:30N 63°01' E 007°09'612.5
2018-Feb-24 00:00N 62°59' E 006°56'611.9
2018-Feb-23 23:30N 62°55' E 006°47'611.8
2018-Feb-23 23:00N 62°50' E 006°40'610.6
2018-Feb-23 22:29N 62°47' E 006°29'0 0.9
2018-Feb-23 22:00N 62°47' E 006°28'2 4.6
2018-Feb-23 21:30N 62°47' E 006°33'712.9
2018-Feb-23 21:00N 62°45' E 006°47'610.3
2018-Feb-23 20:28N 62°43' E 006°58'512.0
2018-Feb-23 20:00N 62°39' E 007°07'1 2.9
2018-Feb-23 19:30N 62°38' E 007°05'  
2018-Feb-15 19:27N 62°38' E 007°05'0 0.0
2018-Feb-15 18:59N 62°38' E 007°05'0 0.1
2018-Feb-15 18:30N 62°38' E 007°05'0 0.0
2018-Feb-15 18:00N 62°38' E 007°05'0 0.0
2018-Feb-15 17:31N 62°38' E 007°05'0 0.0
2018-Feb-15 17:00N 62°38' E 007°05'0 0.0
2018-Feb-15 16:29N 62°38' E 007°05'0 0.0
2018-Feb-15 16:01N 62°38' E 007°05'0 0.0
2018-Feb-15 15:30N 62°38' E 007°05'0 0.0
2018-Feb-15 15:00N 62°38' E 007°05'0 0.0
2018-Feb-15 14:30N 62°38' E 007°05'0 0.0
2018-Feb-15 14:00N 62°38' E 007°05'0 0.0
2018-Feb-15 13:30N 62°38' E 007°05'0 0.0
2018-Feb-15 12:59N 62°38' E 007°05'0 0.0
2018-Feb-15 12:30N 62°38' E 007°05'0 0.0
2018-Feb-15 12:00N 62°38' E 007°05'0 0.0
2018-Feb-15 11:30N 62°38' E 007°05'0 0.0
2018-Feb-15 11:01N 62°38' E 007°05'0 0.0
2018-Feb-15 10:30N 62°38' E 007°05'0 0.0
2018-Feb-15 10:00N 62°38' E 007°05'0 0.0
2018-Feb-15 09:30N 62°38' E 007°05'0 0.0
2018-Feb-15 08:58N 62°38' E 007°05'0 0.0
2018-Feb-15 08:29N 62°38' E 007°05'0 0.0
2018-Feb-15 08:00N 62°38' E 007°05'0 0.0
2018-Feb-15 07:30N 62°38' E 007°05'0 0.0
2018-Feb-15 07:00N 62°38' E 007°05'0 0.0
2018-Feb-15 06:30N 62°38' E 007°05'0 0.0
2018-Feb-15 05:59N 62°38' E 007°05'0 0.0
2018-Feb-15 05:30N 62°38' E 007°05'0 0.0
2018-Feb-15 05:00N 62°38' E 007°05'0 0.0
2018-Feb-15 04:30N 62°38' E 007°05'0 0.0
2018-Feb-15 04:00N 62°38' E 007°05'0 0.0
2018-Feb-15 03:31N 62°38' E 007°05'0 0.0
2018-Feb-15 03:00N 62°38' E 007°05'0 0.0
2018-Feb-15 02:30N 62°38' E 007°05'0 0.0
2018-Feb-15 02:00N 62°38' E 007°05'0 0.0
2018-Feb-15 01:30N 62°38' E 007°05'0 0.0
2018-Feb-15 01:00N 62°38' E 007°05'0 0.0
2018-Feb-15 00:30N 62°38' E 007°05'0 0.0
2018-Feb-15 00:00N 62°38' E 007°05'  
Track history (hours):
 
Tides and Currents Weather Stations Pressure Air Temp Water Temp Dewpoint Dewpoint Depression Visibility Wind Speed Wind Dir Waves Ship Positions

Rostein

Last reported at 2018-Feb-25 00:00 UTC. Time now 2018-Feb-25 00:13 UTC.
Position N 63°28' E 008°58'.

Length 57 m; draft 5 m.

Type: Cargo ship. MMSI: 257210000.

Date/timePositionNaut miles runAvg speedWind from/ knotsBaromVisibWave heightAir tempDewpointWater temp
2018-Feb-25 00:00N 63°28' E 008°58'4 7.8
2018-Feb-24 23:30N 63°30' E 009°06'4 7.9
2018-Feb-24 23:00N 63°32' E 009°14'5 9.5
2018-Feb-24 22:30N 63°34' E 009°23'510.3
2018-Feb-24 22:00N 63°37' E 009°32'611.9
2018-Feb-24 21:30N 63°39' E 009°45'612.3
2018-Feb-24 21:00N 63°34' E 009°50'612.5
2018-Feb-24 20:30N 63°29' E 009°59'612.5
2018-Feb-24 20:00N 63°30' E 010°12'612.7
2018-Feb-24 19:30N 63°33' E 010°25'612.9
2018-Feb-24 19:00N 63°37' E 010°37'612.9
2018-Feb-24 18:30N 63°41' E 010°48'612.6
2018-Feb-24 18:00N 63°45' E 010°59'612.4
2018-Feb-24 17:30N 63°51' E 011°04'612.3
2018-Feb-24 17:00N 63°57' E 011°06'2 3.7
2018-Feb-24 16:28N 63°59' E 011°07'0 0.0
2018-Feb-24 16:00N 63°59' E 011°07'0 0.0
2018-Feb-24 15:30N 63°59' E 011°07'0 0.0
2018-Feb-24 15:00N 63°59' E 011°07'0 0.0
2018-Feb-24 14:30N 63°59' E 011°07'0 0.0
2018-Feb-24 13:59N 63°59' E 011°07'0 0.0
2018-Feb-24 13:30N 63°59' E 011°07'3 5.7
2018-Feb-24 12:59N 63°56' E 011°05'510.4
2018-Feb-24 12:30N 63°51' E 011°04'510.3
2018-Feb-24 12:00N 63°46' E 011°00'510.4
2018-Feb-24 11:30N 63°42' E 010°53'510.2
2018-Feb-24 11:00N 63°39' E 010°43'510.0
2018-Feb-24 10:30N 63°36' E 010°34'4 8.7
2018-Feb-24 10:00N 63°34' E 010°26'611.7
2018-Feb-24 09:30N 63°31' E 010°15'510.7
2018-Feb-24 09:00N 63°29' E 010°04'2 4.1
2018-Feb-24 08:30N 63°28' E 009°59'510.3
2018-Feb-24 08:00N 63°32' E 009°51'611.6
2018-Feb-24 07:30N 63°38' E 009°47'4 7.3
2018-Feb-24 07:00N 63°39' E 009°40'611.0
2018-Feb-24 06:30N 63°36' E 009°29'612.2
2018-Feb-24 06:00N 63°33' E 009°17'612.6
2018-Feb-24 05:30N 63°30' E 009°05'611.6
2018-Feb-24 05:00N 63°28' E 008°53'611.6
2018-Feb-24 04:30N 63°26' E 008°41'611.6
2018-Feb-24 04:00N 63°23' E 008°29'611.9
2018-Feb-24 03:30N 63°20' E 008°19'612.6
2018-Feb-24 03:00N 63°16' E 008°08'612.4
2018-Feb-24 02:30N 63°13' E 007°55'612.0
2018-Feb-24 02:00N 63°10' E 007°44'612.0
2018-Feb-24 01:30N 63°06' E 007°33'611.7
2018-Feb-24 01:00N 63°04' E 007°22'612.3
2018-Feb-24 00:30N 63°01' E 007°09'612.5
2018-Feb-24 00:00N 62°59' E 006°56'611.9
2018-Feb-23 23:30N 62°55' E 006°47'611.8
2018-Feb-23 23:00N 62°50' E 006°40'610.6
2018-Feb-23 22:29N 62°47' E 006°29'0 0.9
2018-Feb-23 22:00N 62°47' E 006°28'2 4.6
2018-Feb-23 21:30N 62°47' E 006°33'712.9
2018-Feb-23 21:00N 62°45' E 006°47'610.3
2018-Feb-23 20:28N 62°43' E 006°58'512.0
2018-Feb-23 20:00N 62°39' E 007°07'1 2.9
2018-Feb-23 19:30N 62°38' E 007°05'  
2018-Feb-15 19:27N 62°38' E 007°05'0 0.0
2018-Feb-15 18:59N 62°38' E 007°05'0 0.1
2018-Feb-15 18:30N 62°38' E 007°05'0 0.0
2018-Feb-15 18:00N 62°38' E 007°05'0 0.0
2018-Feb-15 17:31N 62°38' E 007°05'0 0.0
2018-Feb-15 17:00N 62°38' E 007°05'0 0.0
2018-Feb-15 16:29N 62°38' E 007°05'0 0.0
2018-Feb-15 16:01N 62°38' E 007°05'0 0.0
2018-Feb-15 15:30N 62°38' E 007°05'0 0.0
2018-Feb-15 15:00N 62°38' E 007°05'0 0.0
2018-Feb-15 14:30N 62°38' E 007°05'0 0.0
2018-Feb-15 14:00N 62°38' E 007°05'0 0.0
2018-Feb-15 13:30N 62°38' E 007°05'0 0.0
2018-Feb-15 12:59N 62°38' E 007°05'0 0.0
2018-Feb-15 12:30N 62°38' E 007°05'0 0.0
2018-Feb-15 12:00N 62°38' E 007°05'0 0.0
2018-Feb-15 11:30N 62°38' E 007°05'0 0.0
2018-Feb-15 11:01N 62°38' E 007°05'0 0.0
2018-Feb-15 10:30N 62°38' E 007°05'0 0.0
2018-Feb-15 10:00N 62°38' E 007°05'0 0.0
2018-Feb-15 09:30N 62°38' E 007°05'0 0.0
2018-Feb-15 08:58N 62°38' E 007°05'0 0.0
2018-Feb-15 08:29N 62°38' E 007°05'0 0.0
2018-Feb-15 08:00N 62°38' E 007°05'0 0.0
2018-Feb-15 07:30N 62°38' E 007°05'0 0.0
2018-Feb-15 07:00N 62°38' E 007°05'0 0.0
2018-Feb-15 06:30N 62°38' E 007°05'0 0.0
2018-Feb-15 05:59N 62°38' E 007°05'0 0.0
2018-Feb-15 05:30N 62°38' E 007°05'0 0.0
2018-Feb-15 05:00N 62°38' E 007°05'0 0.0
2018-Feb-15 04:30N 62°38' E 007°05'0 0.0
2018-Feb-15 04:00N 62°38' E 007°05'0 0.0
2018-Feb-15 03:31N 62°38' E 007°05'0 0.0
2018-Feb-15 03:00N 62°38' E 007°05'0 0.0
2018-Feb-15 02:30N 62°38' E 007°05'0 0.0
2018-Feb-15 02:00N 62°38' E 007°05'0 0.0
2018-Feb-15 01:30N 62°38' E 007°05'0 0.0
2018-Feb-15 01:00N 62°38' E 007°05'0 0.0
2018-Feb-15 00:30N 62°38' E 007°05'0 0.0
2018-Feb-15 00:00N 62°38' E 007°05'  

Dump ship's entire track history